Syracuse Hancock International Airport
KSYR : now visible

Airfield :











YOU CAN JOIN US ON...

 
LOGIN :

Register | Disclaimer

   EN    FR    IT 

 









Legend :    VFR   Marginal VFR   IFR   Intensive IFR   Very Intensive IFR
Visi :
Ceiling :
>= 8 km
>= 3000ft
5 to 8 km
1000 to 3000 ft
1500m to 5 km
500 to 1000 ft
800 to 1500m
200 to 500 ft
< 800m
< 200 ft
Symbols :   Thunderstorms  Fog  Heavy snow  Heavy precipitations  Wind > 20 kt






- Airport Elevation : 421 ft
- IATA code : SYR


KSYR - Syracuse Hancock International

CURRENT METAR :
  • 120154Z 26021G27KT 10SM FEW055 BKN065 M04/M13 A3041 RMK AO2 PK WND 26032/0128 SLP301 T10391128 $

EXPIRED METARs :
  • 120054Z 27015G23KT 10SM FEW100 M04/M14 A3038 RMK AO2 PK WND 26028/2357 SLP290 T10391139 $
  • 112354Z 26018G25KT 9SM SCT055 BKN075 M03/M11 A3034 RMK AO2 PK WND 27040/2256 SNE52 SLP277 P0000 60000 T10331111 10017 21033 53043 $

TAF KSYR
Valid from the 12 at 02:00 until the 13 at 00:00 UTC


120133Z 1202/1224 27015G25KT P6SM -SHSN OVC100
TEMPO 1203/1207 3SM -SHSN BKN015 OVC035
FM120700 26010KT P6SM BKN035
FM121200 22006KT P6SM SCT250



MET'MAP, your aeronautical weather chart ! - Copyright ORBIFLY December 2007 - Disclaimer

ORBIFLY MET'MAP TEAM :

Programming & Development : Alexandra Zaïnal
Concept & original design : Baudouin d'Aumeries
Assistance for programming : Marc-Olivier Méhu
Technical & hardware support : Manuel Goepfert

Contact : metmap@orbifly.com




SOURCES & CREDITS :

   NOAA       Earth
Advisory